Time;durP1;ratioP1;P1;durP2;ratioP2;P2;SDS_P1;SDS_P2;PMS_P1;PMS_P2;Temp;Humidity;BMP_temperature;BMP_pressure;BME280_temperature;BME280_humidity;BME280_pressure;Samples;Min_cycle;Max_cycle;Signal;HPM_P1;HPM_P2
2023/09/28 00:03:00;;;;;;;15.65;12.85;;;;;;;12.80;100.00;100814.84;4954528;28;20059;-64
2023/09/28 00:05:28;;;;;;;18.25;12.80;;;;;;;12.75;100.00;100811.84;4954438;28;20051;-64
2023/09/28 00:07:56;;;;;;;19.83;13.20;;;;;;;12.71;100.00;100808.63;4955115;28;20111;-65
2023/09/28 00:10:23;;;;;;;20.40;13.48;;;;;;;12.68;100.00;100802.75;4954703;28;20062;-70
2023/09/28 00:12:52;;;;;;;27.27;13.65;;;;;;;12.67;100.00;100804.59;4954470;28;20047;-69
2023/09/28 00:15:20;;;;;;;24.48;13.90;;;;;;;12.46;100.00;100791.69;4954475;28;20058;-69
2023/09/28 00:17:47;;;;;;;21.40;13.85;;;;;;;12.47;100.00;100792.53;4959133;28;20047;-63
2023/09/28 00:20:17;;;;;;;20.98;13.50;;;;;;;12.52;100.00;100801.78;4963508;28;20074;-63
2023/09/28 00:22:56;;;;;;;20.70;13.33;;;;;;;12.54;100.00;100788.97;4963813;28;20130;-63
2023/09/28 00:25:23;;;;;;;21.95;12.45;;;;;;;12.61;100.00;100813.34;4964379;28;20299;-61
2023/09/28 00:27:52;;;;;;;17.95;12.48;;;;;;;12.60;100.00;100795.53;4965465;28;20047;-62
2023/09/28 00:30:22;;;;;;;31.38;13.80;;;;;;;12.56;100.00;100796.88;4964988;28;20106;-62
2023/09/28 00:32:51;;;;;;;19.08;12.90;;;;;;;12.39;100.00;100788.00;4965597;28;20051;-61
2023/09/28 00:35:19;;;;;;;24.05;13.65;;;;;;;12.33;100.00;100773.38;4965085;28;20047;-62
2023/09/28 00:37:49;;;;;;;19.35;13.23;;;;;;;12.28;100.00;100774.88;4965989;28;20058;-62
2023/09/28 00:40:31;;;;;;;19.35;13.40;;;;;;;12.20;100.00;100770.34;4964394;28;20070;-66
2023/09/28 00:42:59;;;;;;;22.70;13.63;;;;;;;12.15;100.00;100749.38;4954204;28;20050;-69
2023/09/28 00:45:27;;;;;;;30.52;13.25;;;;;;;12.13;100.00;100748.69;4959596;28;20082;-64
2023/09/28 00:47:55;;;;;;;26.88;14.50;;;;;;;12.17;100.00;100758.09;4954414;28;20400;-65
2023/09/28 00:50:23;;;;;;;27.35;13.30;;;;;;;12.15;100.00;100751.22;4954235;28;20133;-65
2023/09/28 00:52:57;;;;;;;24.50;14.57;;;;;;;12.08;100.00;100744.84;4954456;28;20047;-65
2023/09/28 00:55:24;;;;;;;23.67;14.00;;;;;;;12.06;100.00;100741.47;4954277;28;20055;-64
2023/09/28 00:57:51;;;;;;;24.58;13.00;;;;;;;12.05;100.00;100743.31;4954258;28;20106;-65
2023/09/28 01:00:25;;;;;;;16.85;13.43;;;;;;;12.01;100.00;100741.97;4953722;28;20401;-64
2023/09/28 01:02:55;;;;;;;23.30;13.57;;;;;;;11.97;100.00;100729.91;4953471;28;20051;-65
2023/09/28 01:09:09;;;;;;;19.60;13.27;;;;;;;11.89;100.00;100732.56;4952672;28;20083;-64
2023/09/28 01:11:36;;;;;;;25.00;13.50;;;;;;;11.81;100.00;100729.88;4952122;29;20463;-64
2023/09/28 01:14:04;;;;;;;20.20;13.95;;;;;;;11.58;100.00;100709.00;4952261;28;20047;-64
2023/09/28 01:16:31;;;;;;;22.77;13.75;;;;;;;11.52;100.00;100704.31;4951915;28;20043;-64
2023/09/28 01:18:57;;;;;;;20.02;13.93;;;;;;;11.41;100.00;100700.13;4943891;28;20111;-65
2023/09/28 01:21:24;;;;;;;22.67;13.23;;;;;;;11.40;100.00;100701.09;4932876;29;20087;-65
2023/09/28 01:23:54;;;;;;;21.60;13.25;;;;;;;11.14;100.00;100681.63;4931403;29;20099;-66
2023/09/28 01:26:21;;;;;;;26.08;13.80;;;;;;;10.84;100.00;100648.97;4932890;29;20316;-65
2023/09/28 01:28:48;;;;;;;18.77;13.82;;;;;;;10.60;100.00;100633.66;4933101;29;20043;-64
2023/09/28 01:31:16;;;;;;;31.95;14.68;;;;;;;10.37;100.00;100586.94;4933013;29;20055;-65
2023/09/28 01:33:42;;;;;;;23.85;14.38;;;;;;;10.32;100.00;100587.41;4932037;29;20052;-63
2023/09/28 01:36:09;;;;;;;21.98;14.43;;;;;;;10.21;100.00;100579.69;4933247;29;20071;-64
2023/09/28 01:38:40;;;;;;;31.50;15.48;;;;;;;10.21;100.00;100590.41;4933454;29;20460;-65
2023/09/28 01:41:07;;;;;;;21.40;14.90;;;;;;;10.21;100.00;100596.59;4933085;28;20527;-64
2023/09/28 01:43:35;;;;;;;23.30;15.05;;;;;;;10.09;100.00;100587.16;4933175;29;20048;-64
2023/09/28 01:46:01;;;;;;;21.90;14.55;;;;;;;9.95;100.00;100564.47;4932733;29;20048;-64
2023/09/28 01:48:28;;;;;;;23.23;15.27;;;;;;;9.96;100.00;100554.63;4932279;29;20079;-64
2023/09/28 01:50:54;;;;;;;28.70;13.82;;;;;;;10.07;100.00;100580.28;4932964;29;20059;-63
2023/09/28 01:53:21;;;;;;;29.15;14.95;;;;;;;10.04;100.00;100576.09;4933054;29;20153;-64
2023/09/28 01:55:50;;;;;;;28.15;14.50;;;;;;;10.15;100.00;100591.88;4932474;29;20048;-65
2023/09/28 01:58:16;;;;;;;29.15;14.63;;;;;;;9.96;100.00;100576.88;4932351;29;20051;-65
2023/09/28 02:00:46;;;;;;;26.95;14.80;;;;;;;9.91;100.00;100557.75;4932308;29;20071;-65
2023/09/28 02:03:14;;;;;;;22.33;14.80;;;;;;;9.91;100.00;100564.97;4932632;29;20111;-65
2023/09/28 02:05:42;;;;;;;23.88;14.93;;;;;;;9.69;100.00;100544.91;4932181;29;20051;-64
2023/09/28 02:08:09;;;;;;;19.10;14.10;;;;;;;9.60;100.00;100529.78;4932716;29;20051;-64
2023/09/28 02:10:35;;;;;;;28.58;14.52;;;;;;;9.63;100.00;100534.84;4933584;29;20052;-63
2023/09/28 02:13:04;;;;;;;19.45;14.65;;;;;;;9.43;100.00;100502.91;4932152;29;20489;-64
2023/09/28 02:15:31;;;;;;;27.45;14.57;;;;;;;9.64;100.00;100544.53;4932340;29;20138;-65
2023/09/28 02:17:57;;;;;;;23.70;14.23;;;;;;;9.36;100.00;100512.56;4931862;29;20469;-65
2023/09/28 02:20:24;;;;;;;25.58;13.93;;;;;;;9.20;100.00;100480.31;4932525;29;20131;-65
2023/09/28 02:22:54;;;;;;;25.00;14.15;;;;;;;9.38;100.00;100507.91;4931855;29;20123;-64
2023/09/28 02:25:23;;;;;;;18.80;14.82;;;;;;;9.34;100.00;100503.88;4932079;29;20051;-67
2023/09/28 02:27:52;;;;;;;19.70;13.43;;;;;;;9.41;100.00;100512.13;4932316;29;20134;-65
2023/09/28 02:30:22;;;;;;;25.25;15.35;;;;;;;9.48;100.00;100524.72;4931397;29;20044;-64
2023/09/28 02:32:50;;;;;;;19.77;14.60;;;;;;;9.31;100.00;100505.03;4931853;29;20055;-65
2023/09/28 02:35:19;;;;;;;23.58;15.25;;;;;;;9.25;100.00;100496.78;4932235;29;20489;-65
2023/09/28 02:37:48;;;;;;;23.42;14.38;;;;;;;9.20;100.00;100491.88;4931698;29;20074;-65
2023/09/28 02:40:17;;;;;;;22.98;14.02;;;;;;;9.27;100.00;100508.19;4932607;29;20051;-66
2023/09/28 02:42:44;;;;;;;20.40;13.77;;;;;;;9.29;100.00;100515.03;4932367;29;20056;-64
2023/09/28 02:45:12;;;;;;;25.50;13.90;;;;;;;9.28;100.00;100513.34;4936300;29;20071;-64
2023/09/28 02:47:41;;;;;;;29.08;14.30;;;;;;;9.51;100.00;100558.38;4935754;29;20063;-65
2023/09/28 02:50:11;;;;;;;25.17;14.13;;;;;;;9.48;100.00;100546.13;4936641;29;20048;-64
2023/09/28 02:52:40;;;;;;;24.55;13.48;;;;;;;9.48;100.00;100556.00;4935525;29;20043;-65
2023/09/28 02:55:10;;;;;;;22.77;13.50;;;;;;;9.37;100.00;100549.06;4936481;29;20083;-65
2023/09/28 02:57:37;;;;;;;25.77;14.25;;;;;;;9.32;100.00;100544.16;4936227;29;20052;-64
2023/09/28 03:00:12;;;;;;;22.02;13.55;;;;;;;9.28;100.00;100539.28;4935475;29;20103;-64
2023/09/28 03:02:38;;;;;;;28.50;13.45;;;;;;;9.37;100.00;100546.41;4935386;29;20047;-65
2023/09/28 03:05:07;;;;;;;22.00;14.13;;;;;;;9.30;100.00;100543.50;4936576;29;20047;-65
2023/09/28 03:07:34;;;;;;;34.58;14.27;;;;;;;9.33;100.00;100547.69;4934459;29;20500;-67
2023/09/28 03:10:04;;;;;;;24.35;14.23;;;;;;;9.47;100.00;100549.81;4933672;29;20511;-65
2023/09/28 03:12:32;;;;;;;31.55;15.07;;;;;;;9.50;100.00;100557.50;4935398;29;20048;-66
2023/09/28 03:14:58;;;;;;;31.10;14.80;;;;;;;9.60;100.00;100578.84;4935373;29;21116;-66
2023/09/28 03:17:25;;;;;;;21.98;14.40;;;;;;;9.46;100.00;100568.69;4935177;29;20063;-64
2023/09/28 03:19:52;;;;;;;26.58;14.23;;;;;;;9.26;100.00;100535.91;4949745;28;20069;-65
2023/09/28 03:22:20;;;;;;;28.25;15.15;;;;;;;9.09;100.00;100511.69;4954142;28;20055;-64
2023/09/28 03:24:47;;;;;;;21.30;14.10;;;;;;;9.19;100.00;100526.81;4952822;28;20496;-65
2023/09/28 03:27:13;;;;;;;23.65;14.55;;;;;;;9.09;100.00;100519.72;4953586;28;20142;-65
2023/09/28 03:29:41;;;;;;;23.23;15.00;;;;;;;9.17;100.00;100523.47;4954028;28;20395;-65
2023/09/28 03:32:08;;;;;;;23.30;14.77;;;;;;;9.14;100.00;100529.13;4954418;28;20070;-66
2023/09/28 03:34:36;;;;;;;24.75;14.38;;;;;;;8.96;100.00;100505.91;4954635;28;20459;-64
2023/09/28 03:37:04;;;;;;;24.50;14.98;;;;;;;8.77;100.00;100490.84;4953756;28;20117;-64
2023/09/28 03:39:30;;;;;;;23.45;14.32;;;;;;;8.75;100.00;100494.69;4954006;28;20074;-66
2023/09/28 03:41:57;;;;;;;26.17;14.00;;;;;;;8.31;100.00;100441.16;4954226;28;20534;-65
2023/09/28 03:44:23;;;;;;;25.77;13.93;;;;;;;7.94;100.00;100382.50;4952548;28;20051;-65
2023/09/28 03:46:50;;;;;;;22.33;14.07;;;;;;;7.80;100.00;100359.78;4953363;28;20063;-64
2023/09/28 03:49:16;;;;;;;17.85;13.80;;;;;;;7.91;100.00;100388.97;4953724;28;20522;-66
2023/09/28 03:51:43;;;;;;;22.80;14.48;;;;;;;7.99;100.00;100399.75;4953224;28;20047;-66
2023/09/28 03:54:10;;;;;;;23.20;14.65;;;;;;;8.09;100.00;100413.88;4953810;28;20054;-65
2023/09/28 03:56:36;;;;;;;22.60;13.88;;;;;;;8.09;100.00;100415.72;4953934;28;20047;-65
2023/09/28 03:59:03;;;;;;;27.15;14.80;;;;;;;7.99;100.00;100402.44;4953698;28;20062;-65
2023/09/28 04:01:30;;;;;;;20.95;14.27;;;;;;;7.78;100.00;100383.97;4953541;28;20052;-65
2023/09/28 04:03:57;;;;;;;27.23;14.85;;;;;;;7.63;100.00;100364.94;4953263;28;20047;-64
2023/09/28 04:06:24;;;;;;;30.73;14.52;;;;;;;7.73;100.00;100380.06;4936983;28;20429;-66
2023/09/28 04:08:50;;;;;;;33.05;15.18;;;;;;;8.16;100.00;100448.00;4934370;29;20073;-65
2023/09/28 04:11:17;;;;;;;28.75;14.05;;;;;;;7.97;100.00;100423.09;4934419;29;20048;-65
2023/09/28 04:13:44;;;;;;;31.00;14.95;;;;;;;7.86;100.00;100404.63;4934281;29;20559;-65
2023/09/28 04:16:11;;;;;;;22.48;13.90;;;;;;;7.87;100.00;100408.97;4943092;29;20051;-63
2023/09/28 04:18:37;;;;;;;21.83;14.55;;;;;;;8.05;100.00;100433.03;4946067;29;20047;-60
2023/09/28 04:21:04;;;;;;;30.25;18.08;;;;;;;7.85;100.00;100405.63;4945717;29;20048;-62
2023/09/28 04:23:33;;;;;;;52.95;27.05;;;;;;;8.05;100.00;100425.00;4944971;29;20119;-62
2023/09/28 04:25:59;;;;;;;32.53;18.20;;;;;;;8.11;100.00;100445.78;4946271;29;20078;-62
2023/09/28 04:28:26;;;;;;;29.73;15.43;;;;;;;7.29;100.00;100318.50;4946577;29;20055;-61
2023/09/28 04:30:52;;;;;;;25.88;14.90;;;;;;;7.35;100.00;100318.75;4945377;29;20043;-64
2023/09/28 04:33:19;;;;;;;33.40;14.95;;;;;;;7.35;100.00;100331.25;4945528;29;20079;-62
2023/09/28 04:35:46;;;;;;;40.53;15.18;;;;;;;6.95;100.00;100273.75;4945760;29;20071;-62
2023/09/28 04:38:13;;;;;;;28.17;14.75;;;;;;;7.36;100.00;100332.91;4945373;29;20048;-62
2023/09/28 04:40:40;;;;;;;28.70;15.40;;;;;;;6.58;100.00;100223.97;4945780;29;20054;-64
2023/09/28 04:43:08;;;;;;;29.95;14.95;;;;;;;6.88;100.00;100262.00;4945764;29;20051;-62
2023/09/28 04:45:34;;;;;;;26.55;14.88;;;;;;;7.01;100.00;100285.66;4945333;29;20043;-61
2023/09/28 04:48:01;;;;;;;21.67;15.00;;;;;;;6.35;100.00;100180.84;4944834;29;20075;-62
2023/09/28 04:50:28;;;;;;;26.33;15.75;;;;;;;6.30;100.00;100187.59;4939426;29;20562;-70
2023/09/28 04:52:55;;;;;;;27.20;15.13;;;;;;;6.53;100.00;100226.22;4933611;29;20094;-72
2023/09/28 04:55:23;;;;;;;22.83;13.75;;;;;;;6.84;100.00;100276.59;4933355;29;20060;-71
2023/09/28 04:57:52;;;;;;;20.55;14.90;;;;;;;7.18;100.00;100324.88;4933085;29;20044;-71
2023/09/28 05:00:20;;;;;;;24.02;15.20;;;;;;;7.15;100.00;100338.50;4934071;29;20484;-70
2023/09/28 05:02:47;;;;;;;30.92;15.88;;;;;;;7.27;100.00;100360.50;4932651;28;20051;-71
2023/09/28 05:05:15;;;;;;;31.42;16.00;;;;;;;7.57;100.00;100399.41;4932809;29;20051;-70
2023/09/28 05:07:42;;;;;;;25.92;15.63;;;;;;;7.38;100.00;100381.66;4933036;28;20043;-70
2023/09/28 05:10:09;;;;;;;29.55;14.30;;;;;;;7.55;100.00;100409.41;4933079;29;20052;-65
2023/09/28 05:12:36;;;;;;;29.38;14.82;;;;;;;7.60;100.00;100413.31;4933874;29;20075;-71
2023/09/28 05:15:03;;;;;;;26.08;15.85;;;;;;;7.76;100.00;100431.34;4932434;29;20099;-71
2023/09/28 05:17:31;;;;;;;23.48;15.43;;;;;;;7.70;100.00;100428.41;4932201;29;20522;-70
2023/09/28 05:19:58;;;;;;;25.42;15.73;;;;;;;7.59;100.00;100413.44;4933339;29;20135;-70
2023/09/28 05:22:26;;;;;;;27.58;15.05;;;;;;;7.35;100.00;100382.78;4933040;29;20075;-71
2023/09/28 05:24:53;;;;;;;23.88;15.35;;;;;;;7.57;100.00;100408.28;4933291;29;20051;-71
2023/09/28 05:27:20;;;;;;;29.83;15.07;;;;;;;7.62;100.00;100400.63;4932881;29;20103;-69
2023/09/28 05:29:47;;;;;;;31.95;15.07;;;;;;;7.73;100.00;100423.63;4931387;29;20055;-70
2023/09/28 05:32:13;;;;;;;22.08;14.90;;;;;;;7.96;100.00;100445.47;4932750;29;20059;-72
2023/09/28 05:34:40;;;;;;;23.17;14.40;;;;;;;8.19;100.00;100482.44;4932796;29;20051;-70
2023/09/28 05:37:06;;;;;;;25.08;15.18;;;;;;;8.22;100.00;100493.66;4933771;29;20103;-71
2023/09/28 05:39:33;;;;;;;27.65;14.55;;;;;;;7.93;100.00;100448.44;4932742;29;20518;-70
2023/09/28 05:42:01;;;;;;;25.58;15.65;;;;;;;7.85;100.00;100435.81;4932872;29;20404;-71
2023/09/28 05:44:29;;;;;;;22.85;15.38;;;;;;;7.93;100.00;100451.09;4932955;29;20099;-71
2023/09/28 05:46:56;;;;;;;27.73;14.52;;;;;;;7.99;100.00;100453.19;4932326;29;20055;-71
2023/09/28 05:49:22;;;;;;;23.83;15.15;;;;;;;8.42;100.00;100510.41;4932829;29;20448;-71
2023/09/28 05:51:49;;;;;;;33.55;15.27;;;;;;;8.55;100.00;100526.94;4933408;29;20066;-72
2023/09/28 05:54:15;;;;;;;26.52;14.93;;;;;;;8.35;100.00;100493.31;4932814;29;20052;-71
2023/09/28 05:56:42;;;;;;;27.70;14.55;;;;;;;8.64;100.00;100532.34;4932566;29;20504;-71
2023/09/28 05:59:09;;;;;;;25.33;14.57;;;;;;;8.65;100.00;100542.06;4932993;29;20135;-69
2023/09/28 06:01:35;;;;;;;32.53;15.95;;;;;;;8.64;100.00;100545.72;4933058;29;20047;-70
2023/09/28 06:04:02;;;;;;;28.45;16.02;;;;;;;8.30;100.00;100508.97;4931737;29;20051;-70
2023/09/28 06:06:28;;;;;;;26.42;15.50;;;;;;;8.23;100.00;100487.34;4932883;29;20082;-69
2023/09/28 06:08:55;;;;;;;32.33;16.42;;;;;;;7.90;100.00;100440.72;4932409;29;20039;-71
2023/09/28 06:11:22;;;;;;;28.67;15.88;;;;;;;7.56;100.00;100395.06;4932541;29;20416;-71
2023/09/28 06:13:49;;;;;;;30.42;15.27;;;;;;;7.24;100.00;100345.63;4932708;29;20128;-65
2023/09/28 06:16:36;;;;;;;34.08;15.23;;;;;;;7.42;100.00;100372.38;4932663;29;20082;-65
2023/09/28 06:19:03;;;;;;;22.95;15.40;;;;;;;7.77;100.00;100430.34;4936395;29;20107;-65
2023/09/28 06:21:29;;;;;;;28.13;15.00;;;;;;;8.34;100.00;100505.81;4935811;29;20119;-65
2023/09/28 06:23:57;;;;;;;21.75;15.27;;;;;;;8.66;100.00;100549.94;4936248;29;20050;-64
2023/09/28 06:26:23;;;;;;;26.77;16.20;;;;;;;8.84;100.00;100564.13;4936506;29;20071;-64
2023/09/28 06:29:05;;;;;;;27.20;15.90;;;;;;;9.16;100.00;100592.22;4936739;29;20520;-64
2023/09/28 06:31:31;;;;;;;39.40;18.38;;;;;;;9.15;100.00;100578.97;4936249;29;20055;-69
2023/09/28 06:33:58;;;;;;;35.95;17.73;;;;;;;9.65;100.00;100642.66;4936129;29;20047;-71
2023/09/28 06:36:26;;;;;;;24.73;15.07;;;;;;;10.10;100.00;100684.47;4936184;29;20052;-69
2023/09/28 06:39:08;;;;;;;29.10;15.48;;;;;;;10.66;100.00;100755.59;4936198;29;20556;-65
2023/09/28 06:41:37;;;;;;;26.83;15.35;;;;;;;10.97;100.00;100786.25;4935799;29;20135;-65
2023/09/28 06:44:04;;;;;;;30.05;15.50;;;;;;;11.43;100.00;100835.09;4935722;29;20456;-65
2023/09/28 06:46:31;;;;;;;30.23;14.60;;;;;;;11.50;100.00;100845.19;4934676;29;20405;-71
2023/09/28 06:48:58;;;;;;;24.60;13.95;;;;;;;11.80;100.00;100855.38;4936226;29;20071;-69
2023/09/28 06:51:25;;;;;;;24.92;13.38;;;;;;;12.27;100.00;100889.72;4936058;29;20135;-69
2023/09/28 06:53:52;;;;;;;21.77;14.18;;;;;;;13.01;100.00;100943.56;4935523;29;20087;-69
2023/09/28 06:56:20;;;;;;;30.40;13.82;;;;;;;13.56;100.00;100973.22;4936475;29;20527;-70
2023/09/28 06:58:47;;;;;;;24.92;13.60;;;;;;;13.95;100.00;100976.97;4935888;29;20050;-70
2023/09/28 07:01:14;;;;;;;26.88;12.98;;;;;;;14.19;100.00;100993.03;4935691;29;20059;-70
2023/09/28 07:03:41;;;;;;;22.52;13.07;;;;;;;14.21;100.00;101000.94;4936077;29;20126;-70
2023/09/28 07:06:09;;;;;;;24.05;12.75;;;;;;;14.46;100.00;101005.19;4936457;28;20099;-71
2023/09/28 07:08:35;;;;;;;20.45;12.82;;;;;;;14.84;100.00;101007.94;4936613;29;20109;-70
2023/09/28 07:11:02;;;;;;;27.92;12.98;;;;;;;15.20;100.00;101005.44;4936109;28;20130;-70
2023/09/28 07:13:29;;;;;;;21.63;12.73;;;;;;;15.15;100.00;100993.50;4934946;29;20059;-72
2023/09/28 07:15:58;;;;;;;16.35;11.63;;;;;;;15.05;100.00;101010.00;4936163;28;20497;-72
2023/09/28 07:18:25;;;;;;;22.58;11.95;;;;;;;15.43;100.00;101009.94;4936539;29;20120;-70
2023/09/28 07:20:53;;;;;;;23.33;11.95;;;;;;;15.41;100.00;101015.53;4936204;29;20051;-72
2023/09/28 07:23:19;;;;;;;17.10;12.20;;;;;;;15.85;100.00;101014.75;4936493;29;20059;-72
2023/09/28 07:25:48;;;;;;;26.55;12.10;;;;;;;16.05;100.00;101017.69;4936419;28;20066;-71
2023/09/28 07:28:15;;;;;;;28.50;12.13;;;;;;;16.30;100.00;101020.09;4935857;29;20143;-71
2023/09/28 07:30:42;;;;;;;18.63;13.00;;;;;;;16.83;100.00;101026.06;4936051;28;20055;-72
2023/09/28 07:33:12;;;;;;;21.20;11.50;;;;;;;16.62;100.00;101030.47;4937026;29;20412;-73
2023/09/28 07:35:43;;;;;;;19.02;12.45;;;;;;;16.81;100.00;101028.13;4936570;29;20044;-67
2023/09/28 07:38:10;;;;;;;24.70;11.20;;;;;;;16.82;100.00;101030.66;4936267;29;20051;-67
2023/09/28 07:40:37;;;;;;;24.08;12.05;;;;;;;16.93;100.00;101031.19;4936531;29;20052;-68
2023/09/28 07:43:14;;;;;;;18.10;11.23;;;;;;;17.25;100.00;101035.19;4936009;29;20056;-67
2023/09/28 07:45:41;;;;;;;22.08;11.52;;;;;;;17.39;100.00;101047.00;4936143;29;20079;-67
2023/09/28 07:48:08;;;;;;;17.60;11.85;;;;;;;17.35;100.00;101039.25;4936820;29;20044;-67
2023/09/28 07:50:35;;;;;;;20.58;11.57;;;;;;;17.68;100.00;101040.50;4935954;29;20040;-65
2023/09/28 07:53:02;;;;;;;24.10;11.05;;;;;;;18.11;100.00;101040.34;4935303;29;20138;-66
2023/09/28 07:55:30;;;;;;;19.13;10.73;;;;;;;18.30;100.00;101050.47;4935959;29;20568;-67
2023/09/28 07:57:58;;;;;;;19.98;11.10;;;;;;;18.60;100.00;101044.72;4935990;29;20047;-67
2023/09/28 08:00:44;;;;;;;23.35;10.57;;;;;;;18.50;100.00;101045.09;4935761;28;20388;-66
2023/09/28 08:03:12;;;;;;;23.83;11.18;;;;;;;18.95;100.00;101050.84;4935787;29;20054;-67
2023/09/28 08:05:39;;;;;;;23.67;11.20;;;;;;;19.50;100.00;101046.88;4936002;29;20100;-67
2023/09/28 08:08:06;;;;;;;22.77;11.25;;;;;;;19.66;100.00;101053.75;4935558;29;20271;-67
2023/09/28 08:10:40;;;;;;;14.10;9.57;;;;;;;20.03;100.00;101050.53;4935571;29;20123;-66
2023/09/28 08:13:07;;;;;;;21.58;10.00;;;;;;;20.55;100.00;101048.66;4935950;29;20091;-67
2023/09/28 08:15:34;;;;;;;24.25;9.63;;;;;;;20.76;100.00;101045.56;4935624;29;20059;-66
2023/09/28 08:18:03;;;;;;;21.88;9.98;;;;;;;20.94;100.00;101053.03;4943125;29;20051;-61
2023/09/28 08:20:33;;;;;;;21.52;10.15;;;;;;;20.67;100.00;101046.91;4968193;28;20389;-65
2023/09/28 08:23:01;;;;;;;25.90;11.20;;;;;;;20.62;100.00;101049.44;4961211;28;20051;-67
2023/09/28 08:25:31;;;;;;;20.63;8.82;;;;;;;21.11;100.00;101043.25;4954875;28;20456;-66
2023/09/28 08:27:57;;;;;;;15.63;9.10;;;;;;;21.03;99.99;101039.94;4954650;28;20071;-67
2023/09/28 08:30:25;;;;;;;31.02;9.32;;;;;;;20.87;100.00;101035.84;4954629;28;20054;-66
2023/09/28 08:32:54;;;;;;;20.38;8.98;;;;;;;21.06;100.00;101044.94;4954575;28;20047;-67
2023/09/28 08:35:21;;;;;;;22.17;10.30;;;;;;;20.73;100.00;101032.41;4954479;28;20612;-68
2023/09/28 08:37:48;;;;;;;22.80;10.27;;;;;;;21.17;100.00;101030.59;4954880;28;20412;-68
2023/09/28 08:40:14;;;;;;;18.35;9.15;;;;;;;21.67;97.49;101036.03;4953525;28;20476;-66
2023/09/28 08:42:45;;;;;;;18.60;8.80;;;;;;;22.48;90.52;101036.75;4954245;28;20047;-67
2023/09/28 08:45:14;;;;;;;22.75;8.70;;;;;;;22.90;81.73;101053.16;4954392;28;20087;-68
2023/09/28 08:47:48;;;;;;;18.52;10.07;;;;;;;23.27;79.51;101054.69;4953969;28;20043;-68
2023/09/28 08:50:21;;;;;;;23.65;9.02;;;;;;;23.27;77.56;101051.97;4954583;28;20055;-68
2023/09/28 08:52:50;;;;;;;21.17;8.40;;;;;;;23.70;73.79;101042.53;4954086;28;20051;-69
2023/09/28 08:55:18;;;;;;;20.10;8.18;;;;;;;23.57;76.51;101040.03;4954027;28;20078;-68
2023/09/28 08:57:46;;;;;;;16.83;8.48;;;;;;;24.61;71.67;101042.81;4954010;28;20388;-67
2023/09/28 09:00:14;;;;;;;13.10;7.43;;;;;;;25.22;65.40;101045.78;4953877;28;20094;-69
2023/09/28 09:02:43;;;;;;;21.83;7.60;;;;;;;25.24;65.26;101049.13;4954529;28;20114;-68
2023/09/28 09:05:13;;;;;;;22.77;7.32;;;;;;;25.21;64.17;101049.63;4953866;28;20054;-68
2023/09/28 09:07:43;;;;;;;19.63;7.55;;;;;;;25.61;62.19;101054.91;4954108;28;20043;-67
2023/09/28 09:10:12;;;;;;;17.20;6.68;;;;;;;26.34;58.91;101060.28;4953607;28;20485;-67
2023/09/28 09:12:39;;;;;;;23.25;7.80;;;;;;;26.18;59.13;101055.69;4953948;28;20070;-66
2023/09/28 09:15:06;;;;;;;15.82;6.28;;;;;;;27.75;55.03;101058.22;4953704;28;20043;-67
2023/09/28 09:17:35;;;;;;;18.63;6.47;;;;;;;27.13;53.83;101056.94;4953585;28;20050;-67
2023/09/28 09:20:08;;;;;;;17.55;6.53;;;;;;;27.36;53.87;101057.72;4936980;28;20122;-67
2023/09/28 09:22:35;;;;;;;11.63;5.95;;;;;;;27.80;52.63;101051.88;4933931;29;20142;-69
2023/09/28 09:25:20;;;;;;;12.65;6.25;;;;;;;27.57;52.55;101053.16;4934473;29;20074;-67
2023/09/28 09:27:48;;;;;;;15.27;6.15;;;;;;;28.08;51.12;101054.28;4934220;29;20118;-68
2023/09/28 09:30:15;;;;;;;54.60;7.90;;;;;;;28.96;49.08;101052.59;4932938;29;20107;-68
2023/09/28 09:32:42;;;;;;;18.25;6.25;;;;;;;29.72;46.92;101049.72;4931831;29;20139;-67
2023/09/28 09:35:12;;;;;;;13.82;5.68;;;;;;;30.62;44.28;101054.34;4934712;28;20456;-68
2023/09/28 09:37:50;;;;;;;13.52;5.63;;;;;;;30.93;43.03;101056.88;4934733;29;20455;-69
2023/09/28 09:40:17;;;;;;;14.73;5.28;;;;;;;30.77;44.15;101048.66;4934183;29;20052;-68
2023/09/28 09:42:44;;;;;;;15.82;5.25;;;;;;;30.32;43.87;101053.38;4934557;29;20043;-67
2023/09/28 09:45:11;;;;;;;11.50;5.05;;;;;;;31.21;42.47;101052.50;4933114;29;20103;-66
2023/09/28 09:47:49;;;;;;;9.18;5.07;;;;;;;31.52;40.92;101053.06;4933315;29;20094;-66
2023/09/28 09:50:17;;;;;;;13.75;5.28;;;;;;;30.51;42.21;101050.81;4934554;29;20047;-66
2023/09/28 09:52:45;;;;;;;12.10;5.15;;;;;;;31.28;41.65;101041.06;4934209;29;20043;-67
2023/09/28 09:55:12;;;;;;;8.18;5.28;;;;;;;31.61;41.06;101039.34;4934547;29;20043;-67
2023/09/28 09:57:42;;;;;;;10.57;5.07;;;;;;;32.09;38.80;101037.41;4935026;29;20063;-67
2023/09/28 10:00:15;;;;;;;9.23;4.60;;;;;;;31.86;39.73;101041.84;4934988;29;20047;-67
2023/09/28 10:02:43;;;;;;;11.80;4.78;;;;;;;32.02;38.14;101044.44;4934103;29;20362;-67
2023/09/28 10:05:13;;;;;;;9.55;4.25;;;;;;;31.84;38.28;101051.59;4934090;29;20043;-66
2023/09/28 10:07:42;;;;;;;11.25;4.50;;;;;;;31.91;38.64;101040.94;4934070;29;20139;-67
2023/09/28 10:10:13;;;;;;;9.23;4.38;;;;;;;33.12;36.43;101045.88;4934202;29;20472;-68
2023/09/28 10:12:40;;;;;;;10.65;4.80;;;;;;;32.72;36.88;101047.38;4934278;29;20107;-66
2023/09/28 10:15:08;;;;;;;12.27;4.72;;;;;;;32.36;37.19;101047.84;4933344;29;20052;-71
2023/09/28 10:17:35;;;;;;;12.73;4.30;;;;;;;32.69;36.69;101047.16;4934307;28;20055;-70
2023/09/28 10:20:05;;;;;;;11.07;5.55;;;;;;;32.86;36.88;101041.88;4933989;29;20500;-71
2023/09/28 10:22:32;;;;;;;10.02;4.80;;;;;;;32.23;37.12;101045.00;4933943;29;20050;-68
2023/09/28 10:24:59;;;;;;;17.80;5.70;;;;;;;30.37;39.44;101046.16;4934219;29;20555;-71
2023/09/28 10:27:25;;;;;;;12.85;5.22;;;;;;;30.55;40.34;101043.56;4934452;29;20051;-70
2023/09/28 10:30:18;;;;;;;19.42;6.10;;;;;;;30.69;39.92;101052.06;4934049;29;20051;-71
2023/09/28 10:32:45;;;;;;;10.05;4.78;;;;;;;31.07;38.77;101057.91;4933824;29;20051;-71
2023/09/28 10:35:31;;;;;;;11.68;4.30;;;;;;;31.32;37.54;101059.59;4934240;29;20060;-68
2023/09/28 10:38:19;;;;;;;13.27;5.07;;;;;;;30.60;38.49;101059.31;4933791;29;20048;-69
2023/09/28 10:41:02;;;;;;;14.73;4.20;;;;;;;30.25;37.75;101063.09;4933688;29;20487;-69
2023/09/28 10:43:32;;;;;;;9.60;3.85;;;;;;;30.29;38.09;101062.25;4933851;29;20052;-69
2023/09/28 10:46:03;;;;;;;12.65;4.35;;;;;;;29.72;38.69;101051.69;4934020;29;20047;-70
2023/09/28 10:48:40;;;;;;;12.70;4.20;;;;;;;28.95;41.08;101057.28;4933806;29;20105;-70
2023/09/28 10:51:15;;;;;;;10.07;4.22;;;;;;;29.28;40.31;101049.50;4934033;29;20560;-71
2023/09/28 10:53:43;;;;;;;7.88;3.45;;;;;;;29.96;38.24;101060.16;4933314;29;20099;-70
2023/09/28 10:56:11;;;;;;;8.15;3.65;;;;;;;30.08;37.34;101060.69;4933892;29;20440;-69
2023/09/28 10:58:41;;;;;;;6.78;3.53;;;;;;;29.91;37.23;101060.16;4934339;29;20078;-70
2023/09/28 11:01:08;;;;;;;8.23;3.77;;;;;;;28.57;38.39;101066.88;4934066;29;20071;-69
2023/09/28 11:03:36;;;;;;;11.02;4.28;;;;;;;28.72;38.94;101058.59;4934880;29;20082;-69
2023/09/28 11:06:07;;;;;;;21.23;4.03;;;;;;;27.36;41.84;101058.53;4937442;29;20052;-71
2023/09/28 11:08:36;;;;;;;10.77;3.67;;;;;;;27.69;40.85;101048.25;4937367;29;20048;-71
2023/09/28 11:11:09;;;;;;;6.13;3.15;;;;;;;27.69;39.93;101045.50;4937525;29;20067;-71
2023/09/28 11:13:35;;;;;;;9.35;4.95;;;;;;;27.40;40.87;101051.38;4937365;29;20040;-69
2023/09/28 11:16:02;;;;;;;6.97;3.67;;;;;;;27.28;41.61;101053.50;4936513;29;20095;-71
2023/09/28 11:18:29;;;;;;;16.55;5.55;;;;;;;27.37;42.27;101051.91;4940994;28;20047;-68
2023/09/28 11:20:58;;;;;;;15.10;9.00;;;;;;;27.24;42.53;101039.41;4956178;28;20051;-69